PWSweather.com
Personal Weather Stations
Station Observations
THRCKWTHR1
Aveley, EssexGB RM154EL

AveleyEssexGB RM154EL

Lat: 51.5000552, Lon: 0.2501753000000235

Elevation: 98.5

Station Type: Oregon Scientific WMR88

www.facebook.com/thurrockweather

High Low Average
Temperature 56.8°F13.8°C 47.1°F8.4°C 52.9°F11.6°C
Dew Point 56.3°F13.5°C 46.6°F8.1°C 51.4°F10.8°C
Winds 14.5 mph 23.3 kmh Calm Calm 3.0 mph ESE4.8 kmh ESE
Wind Gusts 23.2 mph37.3 kmh -- 6.0 mph9.7 kmh
Humidity 98% 84% 95%
Pressure 29.83 in1010.2 mb 29.41 in995.9 mb -
Precipitation 0.08 in2.0 mm - -
Hour Temp Dew Point Humidity Winds Wind Gusts Pressure Precip Precip Rate Daily Precip Total
12:00 AM 55.6°F13.1°C 51.5°F10.8°C 86% 1.9 mph SE3.1 kmh SE 7.9 mph12.7 kmh 29.50 in999.0 mb 0.00 in0.0 mm 0.00 in0.0 mm 0.00 in0.0 mm
12:05 AM 55.4°F13.0°C 51.3°F10.7°C 86% 1.9 mph SE3.1 kmh SE 6.5 mph10.5 kmh 29.50 in999.0 mb 0.00 in0.0 mm 0.00 in0.0 mm 0.00 in0.0 mm
12:10 AM 55.4°F13.0°C 51.3°F10.7°C 86% 6.0 mph SSE9.7 kmh SSE 9.3 mph15.0 kmh 29.50 in999.0 mb 0.00 in0.0 mm 0.00 in0.0 mm 0.00 in0.0 mm
12:15 AM 55.4°F13.0°C 51.0°F10.6°C 85% 3.8 mph SSE6.1 kmh SSE 9.3 mph15.0 kmh 29.53 in1000.0 mb 0.00 in0.0 mm 0.00 in0.0 mm 0.00 in0.0 mm
12:20 AM 55.4°F13.0°C 51.0°F10.6°C 85% 2.7 mph SE4.3 kmh SE 8.7 mph14.0 kmh 29.53 in1000.0 mb 0.00 in0.0 mm 0.00 in0.0 mm 0.00 in0.0 mm
12:25 AM 55.4°F13.0°C 51.0°F10.6°C 85% 4.9 mph SE7.9 kmh SE 7.4 mph11.9 kmh 29.53 in1000.0 mb 0.00 in0.0 mm 0.00 in0.0 mm 0.00 in0.0 mm
12:30 AM 55.4°F13.0°C 51.0°F10.6°C 85% 3.0 mph SE4.8 kmh SE 7.4 mph11.9 kmh 29.50 in999.0 mb 0.00 in0.0 mm 0.00 in0.0 mm 0.00 in0.0 mm
12:35 AM 55.4°F13.0°C 51.3°F10.7°C 86% 3.8 mph SE6.1 kmh SE 5.7 mph9.2 kmh 29.50 in999.0 mb 0.00 in0.0 mm 0.00 in0.0 mm 0.00 in0.0 mm
12:40 AM 55.4°F13.0°C 51.0°F10.6°C 85% 5.2 mph SSE8.4 kmh SSE 15.6 mph25.1 kmh 29.50 in999.0 mb 0.00 in0.0 mm 0.00 in0.0 mm 0.00 in0.0 mm
12:45 AM 55.4°F13.0°C 51.0°F10.6°C 85% 3.3 mph SSE5.3 kmh SSE 15.6 mph25.1 kmh 29.50 in999.0 mb 0.00 in0.0 mm 0.00 in0.0 mm 0.00 in0.0 mm
12:50 AM 55.4°F13.0°C 51.0°F10.6°C 85% 1.4 mph SE2.3 kmh SE 7.1 mph11.4 kmh 29.50 in999.0 mb 0.00 in0.0 mm 0.00 in0.0 mm 0.00 in0.0 mm
12:55 AM 55.2°F12.9°C 51.1°F10.6°C 86% 3.5 mph SSE5.6 kmh SSE 7.4 mph11.9 kmh 29.50 in999.0 mb 0.00 in0.0 mm 0.00 in0.0 mm 0.00 in0.0 mm
01:00 AM 55.2°F12.9°C 51.1°F10.6°C 86% 3.8 mph SSE6.1 kmh SSE 7.4 mph11.9 kmh 29.47 in998.0 mb 0.00 in0.0 mm 0.00 in0.0 mm 0.00 in0.0 mm
01:05 AM 55.2°F12.9°C 51.1°F10.6°C 86% 2.5 mph SE4.0 kmh SE 7.4 mph11.9 kmh 29.47 in998.0 mb 0.00 in0.0 mm 0.00 in0.0 mm 0.00 in0.0 mm
01:10 AM 55.2°F12.9°C 51.1°F10.6°C 86% 3.8 mph SSE6.1 kmh SSE 7.4 mph11.9 kmh 29.47 in998.0 mb 0.00 in0.0 mm 0.00 in0.0 mm 0.00 in0.0 mm
01:15 AM 55.2°F12.9°C 51.1°F10.6°C 86% Calm Calm 3.8 mph6.1 kmh 29.47 in998.0 mb 0.00 in0.0 mm 0.00 in0.0 mm 0.00 in0.0 mm
01:20 AM 55.2°F12.9°C 51.1°F10.6°C 86% 5.7 mph SE9.2 kmh SE 5.7 mph9.2 kmh 29.47 in998.0 mb 0.00 in0.0 mm 0.00 in0.0 mm 0.00 in0.0 mm
01:25 AM 55.0°F12.8°C 50.9°F10.5°C 86% 1.9 mph SSE3.1 kmh SSE 5.7 mph9.2 kmh 29.47 in998.0 mb 0.00 in0.0 mm 0.00 in0.0 mm 0.00 in0.0 mm
01:30 AM 55.0°F12.8°C 50.9°F10.5°C 86% 1.9 mph SSE3.1 kmh SSE 3.8 mph6.1 kmh 29.47 in998.0 mb 0.00 in0.0 mm 0.00 in0.0 mm 0.00 in0.0 mm
01:35 AM 55.0°F12.8°C 50.9°F10.5°C 86% 4.6 mph SSE7.4 kmh SSE 4.9 mph7.9 kmh 29.47 in998.0 mb 0.00 in0.0 mm 0.00 in0.0 mm 0.00 in0.0 mm
01:40 AM 55.0°F12.8°C 50.9°F10.5°C 86% 1.1 mph SE1.8 kmh SE 4.9 mph7.9 kmh 29.47 in998.0 mb 0.00 in0.0 mm 0.00 in0.0 mm 0.00 in0.0 mm
01:45 AM 55.0°F12.8°C 50.9°F10.5°C 86% 4.4 mph SE7.1 kmh SE 5.2 mph8.4 kmh 29.47 in998.0 mb 0.00 in0.0 mm 0.00 in0.0 mm 0.00 in0.0 mm
01:50 AM 55.0°F12.8°C 50.9°F10.5°C 86% 3.8 mph SE6.1 kmh SE 5.2 mph8.4 kmh 29.47 in998.0 mb 0.00 in0.0 mm 0.00 in0.0 mm 0.00 in0.0 mm
01:55 AM 55.0°F12.8°C 50.9°F10.5°C 86% 3.5 mph S5.6 kmh S 3.8 mph6.1 kmh 29.47 in998.0 mb 0.00 in0.0 mm 0.00 in0.0 mm 0.00 in0.0 mm
02:00 AM 55.0°F12.8°C 50.6°F10.3°C 85% 8.5 mph S13.7 kmh S 9.3 mph15.0 kmh 29.47 in998.0 mb 0.00 in0.0 mm 0.00 in0.0 mm 0.00 in0.0 mm
02:05 AM 55.0°F12.8°C 50.6°F10.3°C 85% 3.0 mph S4.8 kmh S 15.3 mph24.6 kmh 29.47 in998.0 mb 0.00 in0.0 mm 0.00 in0.0 mm 0.00 in0.0 mm
02:10 AM 55.0°F12.8°C 50.3°F10.2°C 84% 4.1 mph SSE6.6 kmh SSE 15.3 mph24.6 kmh 29.47 in998.0 mb 0.00 in0.0 mm 0.00 in0.0 mm 0.00 in0.0 mm
02:15 AM 55.0°F12.8°C 50.3°F10.2°C 84% 9.0 mph SE14.5 kmh SE 12.3 mph19.8 kmh 29.47 in998.0 mb 0.00 in0.0 mm 0.00 in0.0 mm 0.00 in0.0 mm
02:20 AM 54.9°F12.7°C 50.1°F10.1°C 84% 1.6 mph S2.6 kmh S 9.3 mph15.0 kmh 29.47 in998.0 mb 0.00 in0.0 mm 0.00 in0.0 mm 0.00 in0.0 mm
02:25 AM 54.9°F12.7°C 50.1°F10.1°C 84% 4.1 mph SSE6.6 kmh SSE 9.0 mph14.5 kmh 29.47 in998.0 mb 0.00 in0.0 mm 0.00 in0.0 mm 0.00 in0.0 mm
02:30 AM 54.9°F12.7°C 50.1°F10.1°C 84% 4.4 mph S7.1 kmh S 12.8 mph20.6 kmh 29.47 in998.0 mb 0.00 in0.0 mm 0.00 in0.0 mm 0.00 in0.0 mm
02:35 AM 54.9°F12.7°C 50.1°F10.1°C 84% 3.5 mph S5.6 kmh S 12.8 mph20.6 kmh 29.47 in998.0 mb 0.00 in0.0 mm 0.00 in0.0 mm 0.00 in0.0 mm
02:40 AM 54.7°F12.6°C 49.9°F9.9°C 84% 1.6 mph SSE2.6 kmh SSE 9.3 mph15.0 kmh 29.47 in998.0 mb 0.00 in0.0 mm 0.00 in0.0 mm 0.00 in0.0 mm
02:45 AM 54.7°F12.6°C 49.9°F9.9°C 84% 2.7 mph ESE4.3 kmh ESE 7.6 mph12.2 kmh 29.45 in997.3 mb 0.00 in0.0 mm 0.00 in0.0 mm 0.00 in0.0 mm
02:50 AM 54.5°F12.5°C 49.8°F9.9°C 84% 9.0 mph SE14.5 kmh SE 9.0 mph14.5 kmh 29.45 in997.3 mb 0.00 in0.0 mm 0.00 in0.0 mm 0.00 in0.0 mm
02:55 AM 54.5°F12.5°C 49.8°F9.9°C 84% 6.0 mph SE9.7 kmh SE 9.0 mph14.5 kmh 29.45 in997.3 mb 0.00 in0.0 mm 0.00 in0.0 mm 0.00 in0.0 mm
03:00 AM 54.5°F12.5°C 49.8°F9.9°C 84% 3.3 mph SE5.3 kmh SE 9.0 mph14.5 kmh 29.45 in997.3 mb 0.00 in0.0 mm 0.00 in0.0 mm 0.00 in0.0 mm
03:05 AM 54.5°F12.5°C 49.8°F9.9°C 84% 4.6 mph SE7.4 kmh SE 7.6 mph12.2 kmh 29.45 in997.3 mb 0.00 in0.0 mm 0.00 in0.0 mm 0.00 in0.0 mm
03:10 AM 54.5°F12.5°C 49.8°F9.9°C 84% 3.8 mph SSE6.1 kmh SSE 12.3 mph19.8 kmh 29.45 in997.3 mb 0.00 in0.0 mm 0.00 in0.0 mm 0.00 in0.0 mm
03:15 AM 54.3°F12.4°C 49.6°F9.8°C 84% 3.8 mph SE6.1 kmh SE 12.3 mph19.8 kmh 29.45 in997.3 mb 0.00 in0.0 mm 0.00 in0.0 mm 0.00 in0.0 mm
03:20 AM 54.3°F12.4°C 49.6°F9.8°C 84% 2.5 mph SE4.0 kmh SE 13.4 mph21.6 kmh 29.45 in997.3 mb 0.00 in0.0 mm 0.00 in0.0 mm 0.00 in0.0 mm
03:25 AM 54.3°F12.4°C 49.6°F9.8°C 84% 6.0 mph SE9.7 kmh SE 13.4 mph21.6 kmh 29.45 in997.3 mb 0.00 in0.0 mm 0.00 in0.0 mm 0.00 in0.0 mm
03:30 AM 54.1°F12.3°C 49.4°F9.7°C 84% 2.5 mph SSE4.0 kmh SSE 13.4 mph21.6 kmh 29.45 in997.3 mb 0.00 in0.0 mm 0.00 in0.0 mm 0.00 in0.0 mm
03:35 AM 54.1°F12.3°C 49.4°F9.7°C 84% 5.7 mph SSE9.2 kmh SSE 13.4 mph21.6 kmh 29.45 in997.3 mb 0.00 in0.0 mm 0.00 in0.0 mm 0.00 in0.0 mm
03:40 AM 54.1°F12.3°C 49.4°F9.7°C 84% 6.5 mph SE10.5 kmh SE 12.8 mph20.6 kmh 29.45 in997.3 mb 0.00 in0.0 mm 0.00 in0.0 mm 0.00 in0.0 mm
03:45 AM 54.0°F12.2°C 49.2°F9.6°C 84% Calm Calm 12.8 mph20.6 kmh 29.45 in997.3 mb 0.00 in0.0 mm 0.00 in0.0 mm 0.00 in0.0 mm
03:50 AM 54.0°F12.2°C 49.2°F9.6°C 84% 3.8 mph SSE6.1 kmh SSE 9.8 mph15.8 kmh 29.45 in997.3 mb 0.00 in0.0 mm 0.00 in0.0 mm 0.00 in0.0 mm
03:55 AM 54.0°F12.2°C 49.2°F9.6°C 84% 9.0 mph SSE14.5 kmh SSE 9.8 mph15.8 kmh 29.45 in997.3 mb 0.00 in0.0 mm 0.00 in0.0 mm 0.00 in0.0 mm
04:00 AM 54.0°F12.2°C 49.2°F9.6°C 84% 7.4 mph SSE11.9 kmh SSE 9.0 mph14.5 kmh 29.45 in997.3 mb 0.00 in0.0 mm 0.00 in0.0 mm 0.00 in0.0 mm
04:05 AM 54.0°F12.2°C 49.2°F9.6°C 84% 6.5 mph SSE10.5 kmh SSE 9.6 mph15.4 kmh 29.45 in997.3 mb 0.00 in0.0 mm 0.00 in0.0 mm 0.00 in0.0 mm
04:10 AM 54.0°F12.2°C 49.2°F9.6°C 84% 3.5 mph SE5.6 kmh SE 9.6 mph15.4 kmh 29.45 in997.3 mb 0.00 in0.0 mm 0.00 in0.0 mm 0.00 in0.0 mm
04:15 AM 54.0°F12.2°C 49.2°F9.6°C 84% 7.1 mph SE11.4 kmh SE 13.1 mph21.1 kmh 29.45 in997.3 mb 0.00 in0.0 mm 0.00 in0.0 mm 0.00 in0.0 mm
04:20 AM 53.8°F12.1°C 49.4°F9.7°C 85% 3.8 mph SSE6.1 kmh SSE 13.1 mph21.1 kmh 29.45 in997.3 mb 0.00 in0.0 mm 0.00 in0.0 mm 0.00 in0.0 mm
04:25 AM 53.6°F12.0°C 49.2°F9.6°C 85% 3.0 mph S4.8 kmh S 9.0 mph14.5 kmh 29.45 in997.3 mb 0.00 in0.0 mm 0.00 in0.0 mm 0.00 in0.0 mm
04:30 AM 53.6°F12.0°C 49.5°F9.7°C 86% 8.5 mph SSE13.7 kmh SSE 9.0 mph14.5 kmh 29.45 in997.3 mb 0.00 in0.0 mm 0.00 in0.0 mm 0.00 in0.0 mm
04:35 AM 53.4°F11.9°C 49.6°F9.8°C 87% 2.5 mph S4.0 kmh S 8.5 mph13.7 kmh 29.45 in997.3 mb 0.00 in0.0 mm 0.00 in0.0 mm 0.00 in0.0 mm
04:40 AM 53.2°F11.8°C 49.8°F9.9°C 88% 6.0 mph SSE9.7 kmh SSE 8.5 mph13.7 kmh 29.45 in997.3 mb 0.00 in0.0 mm 0.00 in0.0 mm 0.00 in0.0 mm
04:45 AM 53.1°F11.7°C 49.9°F9.9°C 89% Calm Calm 12.0 mph19.3 kmh 29.45 in997.3 mb 0.00 in0.0 mm 0.00 in0.0 mm 0.00 in0.0 mm
04:50 AM 53.1°F11.7°C 50.2°F10.1°C 90% 3.8 mph SE6.1 kmh SE 12.0 mph19.3 kmh 29.45 in997.3 mb 0.00 in0.0 mm 0.00 in0.0 mm 0.00 in0.0 mm
04:55 AM 52.9°F11.6°C 50.0°F10.0°C 90% 9.0 mph SE14.5 kmh SE 10.6 mph17.1 kmh 29.45 in997.3 mb 0.00 in0.0 mm 0.00 in0.0 mm 0.00 in0.0 mm
05:00 AM 52.7°F11.5°C 50.1°F10.1°C 91% 3.0 mph SE4.8 kmh SE 10.6 mph17.1 kmh 29.45 in997.3 mb 0.00 in0.0 mm 0.00 in0.0 mm 0.00 in0.0 mm
05:05 AM 52.5°F11.4°C 50.3°F10.2°C 92% 9.3 mph SE15.0 kmh SE 9.3 mph15.0 kmh 29.45 in997.3 mb 0.00 in0.0 mm 0.00 in0.0 mm 0.00 in0.0 mm
05:10 AM 52.5°F11.4°C 50.3°F10.2°C 92% 1.1 mph SE1.8 kmh SE 10.4 mph16.7 kmh 29.45 in997.3 mb 0.00 in0.0 mm 0.00 in0.0 mm 0.00 in0.0 mm
05:15 AM 52.3°F11.3°C 50.1°F10.1°C 92% 2.5 mph SE4.0 kmh SE 10.4 mph16.7 kmh 29.45 in997.3 mb 0.00 in0.0 mm 0.00 in0.0 mm 0.00 in0.0 mm
05:20 AM 52.2°F11.2°C 50.2°F10.1°C 93% 6.8 mph SE10.9 kmh SE 7.9 mph12.7 kmh 29.45 in997.3 mb 0.00 in0.0 mm 0.00 in0.0 mm 0.00 in0.0 mm
05:25 AM 52.2°F11.2°C 50.2°F10.1°C 93% 1.1 mph SE1.8 kmh SE 9.6 mph15.4 kmh 29.45 in997.3 mb 0.00 in0.0 mm 0.00 in0.0 mm 0.00 in0.0 mm
05:30 AM 52.0°F11.1°C 50.0°F10.0°C 93% 1.6 mph SE2.6 kmh SE 9.6 mph15.4 kmh 29.45 in997.3 mb 0.00 in0.0 mm 0.00 in0.0 mm 0.00 in0.0 mm
05:35 AM 52.0°F11.1°C 50.3°F10.2°C 94% Calm Calm 8.7 mph14.0 kmh 29.45 in997.3 mb 0.00 in0.0 mm 0.00 in0.0 mm 0.00 in0.0 mm
05:40 AM 52.0°F11.1°C 50.3°F10.2°C 94% 1.1 mph SE1.8 kmh SE 3.8 mph6.1 kmh 29.45 in997.3 mb 0.00 in0.0 mm 0.00 in0.0 mm 0.00 in0.0 mm
05:45 AM 51.8°F11.0°C 50.1°F10.1°C 94% 9.3 mph SSE15.0 kmh SSE 9.3 mph15.0 kmh 29.41 in995.9 mb 0.00 in0.0 mm 0.00 in0.0 mm 0.00 in0.0 mm
05:50 AM 51.8°F11.0°C 50.1°F10.1°C 94% 8.7 mph SE14.0 kmh SE 9.3 mph15.0 kmh 29.41 in995.9 mb 0.00 in0.0 mm 0.00 in0.0 mm 0.00 in0.0 mm
05:55 AM 51.8°F11.0°C 50.4°F10.2°C 95% 3.3 mph SE5.3 kmh SE 8.7 mph14.0 kmh 29.41 in995.9 mb 0.00 in0.0 mm 0.00 in0.0 mm 0.00 in0.0 mm
06:00 AM 51.6°F10.9°C 50.2°F10.1°C 95% 2.5 mph SE4.0 kmh SE 8.7 mph14.0 kmh 29.41 in995.9 mb 0.00 in0.0 mm 0.00 in0.0 mm 0.00 in0.0 mm
06:05 AM 51.6°F10.9°C 50.8°F10.4°C 97% 6.0 mph S9.7 kmh S 7.1 mph11.4 kmh 29.41 in995.9 mb 0.00 in0.0 mm 0.00 in0.0 mm 0.00 in0.0 mm
06:10 AM 51.6°F10.9°C 51.1°F10.6°C 98% 7.9 mph SSE12.7 kmh SSE 7.9 mph12.7 kmh 29.41 in995.9 mb 0.00 in0.0 mm 0.00 in0.0 mm 0.00 in0.0 mm
06:15 AM 51.6°F10.9°C 51.1°F10.6°C 98% 4.4 mph SSE7.1 kmh SSE 7.9 mph12.7 kmh 29.41 in995.9 mb 0.00 in0.0 mm 0.00 in0.0 mm 0.00 in0.0 mm
06:20 AM 51.6°F10.9°C 51.1°F10.6°C 98% 4.6 mph SSE7.4 kmh SSE 7.9 mph12.7 kmh 29.41 in995.9 mb 0.00 in0.0 mm 0.00 in0.0 mm 0.00 in0.0 mm
06:25 AM 51.6°F10.9°C 51.1°F10.6°C 98% 4.6 mph SE7.4 kmh SE 9.6 mph15.4 kmh 29.41 in995.9 mb 0.00 in0.0 mm 0.00 in0.0 mm 0.00 in0.0 mm
06:30 AM 51.6°F10.9°C 51.1°F10.6°C 98% Calm Calm 10.6 mph17.1 kmh 29.41 in995.9 mb 0.00 in0.0 mm 0.00 in0.0 mm 0.00 in0.0 mm
06:35 AM 51.6°F10.9°C 51.1°F10.6°C 98% 1.6 mph SSE2.6 kmh SSE 10.6 mph17.1 kmh 29.41 in995.9 mb 0.00 in0.0 mm 0.00 in0.0 mm 0.00 in0.0 mm
06:40 AM 51.6°F10.9°C 51.1°F10.6°C 98% 2.5 mph SE4.0 kmh SE 8.7 mph14.0 kmh 29.41 in995.9 mb 0.00 in0.0 mm 0.00 in0.0 mm 0.00 in0.0 mm
06:45 AM 51.8°F11.0°C 51.3°F10.7°C 98% 1.4 mph SSE2.3 kmh SSE 7.1 mph11.4 kmh 29.45 in997.3 mb 0.00 in0.0 mm 0.00 in0.0 mm 0.00 in0.0 mm
06:50 AM 51.8°F11.0°C 51.3°F10.7°C 98% 1.4 mph SSE2.3 kmh SSE 7.1 mph11.4 kmh 29.45 in997.3 mb 0.00 in0.0 mm 0.00 in0.0 mm 0.00 in0.0 mm
06:55 AM 51.8°F11.0°C 51.3°F10.7°C 98% 7.1 mph SE11.4 kmh SE 7.1 mph11.4 kmh 29.45 in997.3 mb 0.00 in0.0 mm 0.00 in0.0 mm 0.00 in0.0 mm
07:00 AM 52.0°F11.1°C 51.4°F10.8°C 98% 4.6 mph SE7.4 kmh SE 12.0 mph19.3 kmh 29.45 in997.3 mb 0.00 in0.0 mm 0.00 in0.0 mm 0.00 in0.0 mm
07:05 AM 52.0°F11.1°C 51.4°F10.8°C 98% Calm Calm 12.0 mph19.3 kmh 29.45 in997.3 mb 0.00 in0.0 mm 0.00 in0.0 mm 0.00 in0.0 mm
07:10 AM 52.0°F11.1°C 51.4°F10.8°C 98% 1.4 mph SE2.3 kmh SE 4.6 mph7.4 kmh 29.45 in997.3 mb 0.00 in0.0 mm 0.00 in0.0 mm 0.00 in0.0 mm
07:15 AM 52.2°F11.2°C 51.6°F10.9°C 98% Calm Calm 9.6 mph15.4 kmh 29.45 in997.3 mb 0.00 in0.0 mm 0.00 in0.0 mm 0.00 in0.0 mm
07:20 AM 52.3°F11.3°C 51.8°F11.0°C 98% 2.5 mph SSE4.0 kmh SSE 9.6 mph15.4 kmh 29.45 in997.3 mb 0.00 in0.0 mm 0.00 in0.0 mm 0.00 in0.0 mm
07:25 AM 52.3°F11.3°C 51.8°F11.0°C 98% Calm Calm 2.5 mph4.0 kmh 29.45 in997.3 mb 0.00 in0.0 mm 0.00 in0.0 mm 0.00 in0.0 mm
07:30 AM 52.3°F11.3°C 51.8°F11.0°C 98% Calm Calm 5.2 mph8.4 kmh 29.45 in997.3 mb 0.00 in0.0 mm 0.00 in0.0 mm 0.00 in0.0 mm
07:35 AM 52.3°F11.3°C 51.8°F11.0°C 98% Calm Calm 5.2 mph8.4 kmh 29.45 in997.3 mb 0.00 in0.0 mm 0.00 in0.0 mm 0.00 in0.0 mm
07:40 AM 52.3°F11.3°C 51.8°F11.0°C 98% 4.9 mph S7.9 kmh S 10.4 mph16.7 kmh 29.45 in997.3 mb 0.00 in0.0 mm 0.00 in0.0 mm 0.00 in0.0 mm
07:45 AM 52.3°F11.3°C 51.8°F11.0°C 98% Calm Calm 10.4 mph16.7 kmh 29.45 in997.3 mb 0.00 in0.0 mm 0.00 in0.0 mm 0.00 in0.0 mm
07:50 AM 52.5°F11.4°C 52.0°F11.1°C 98% Calm Calm 4.9 mph7.9 kmh 29.45 in997.3 mb 0.00 in0.0 mm 0.00 in0.0 mm 0.00 in0.0 mm
07:55 AM 52.5°F11.4°C 52.0°F11.1°C 98% Calm Calm 3.3 mph5.3 kmh 29.45 in997.3 mb 0.00 in0.0 mm 0.00 in0.0 mm 0.00 in0.0 mm
08:00 AM 52.5°F11.4°C 52.0°F11.1°C 98% Calm Calm 1.9 mph3.1 kmh 29.45 in997.3 mb 0.00 in0.0 mm 0.00 in0.0 mm 0.00 in0.0 mm
08:05 AM 52.5°F11.4°C 52.0°F11.1°C 98% Calm Calm -- 29.45 in997.3 mb 0.00 in0.0 mm 0.00 in0.0 mm 0.00 in0.0 mm
08:10 AM 52.7°F11.5°C 52.2°F11.2°C 98% Calm Calm -- 29.45 in997.3 mb 0.00 in0.0 mm 0.00 in0.0 mm 0.00 in0.0 mm
08:15 AM 52.7°F11.5°C 52.2°F11.2°C 98% Calm Calm -- 29.45 in997.3 mb 0.00 in0.0 mm 0.00 in0.0 mm 0.00 in0.0 mm
08:20 AM 52.9°F11.6°C 52.3°F11.3°C 98% Calm Calm -- 29.45 in997.3 mb 0.00 in0.0 mm 0.00 in0.0 mm 0.00 in0.0 mm
08:25 AM 52.9°F11.6°C 52.3°F11.3°C 98% Calm Calm -- 29.45 in997.3 mb 0.00 in0.0 mm 0.00 in0.0 mm 0.00 in0.0 mm
08:30 AM 52.9°F11.6°C 52.3°F11.3°C 98% Calm Calm -- 29.45 in997.3 mb 0.00 in0.0 mm 0.00 in0.0 mm 0.00 in0.0 mm
08:35 AM 52.9°F11.6°C 52.3°F11.3°C 98% Calm Calm -- 29.45 in997.3 mb 0.00 in0.0 mm 0.00 in0.0 mm 0.00 in0.0 mm
08:40 AM 52.9°F11.6°C 52.3°F11.3°C 98% Calm Calm -- 29.45 in997.3 mb 0.00 in0.0 mm 0.00 in0.0 mm 0.00 in0.0 mm
08:45 AM 52.9°F11.6°C 52.3°F11.3°C 98% Calm Calm -- 29.45 in997.3 mb 0.00 in0.0 mm 0.00 in0.0 mm 0.00 in0.0 mm
08:50 AM 52.9°F11.6°C 52.3°F11.3°C 98% Calm Calm -- 29.45 in997.3 mb 0.00 in0.0 mm 0.00 in0.0 mm 0.00 in0.0 mm
08:55 AM 52.9°F11.6°C 52.3°F11.3°C 98% Calm Calm -- 29.45 in997.3 mb 0.00 in0.0 mm 0.00 in0.0 mm 0.00 in0.0 mm
09:00 AM 53.1°F11.7°C 52.5°F11.4°C 98% Calm Calm -- 29.45 in997.3 mb 0.00 in0.0 mm 0.00 in0.0 mm 0.00 in0.0 mm
09:05 AM 52.9°F11.6°C 52.3°F11.3°C 98% Calm Calm 1.1 mph1.8 kmh 29.45 in997.3 mb 0.00 in0.0 mm 0.00 in0.0 mm 0.00 in0.0 mm
09:10 AM 52.9°F11.6°C 52.3°F11.3°C 98% Calm Calm 1.1 mph1.8 kmh 29.45 in997.3 mb 0.00 in0.0 mm 0.00 in0.0 mm 0.00 in0.0 mm
09:15 AM 53.1°F11.7°C 52.5°F11.4°C 98% Calm Calm -- 29.45 in997.3 mb 0.00 in0.0 mm 0.00 in0.0 mm 0.00 in0.0 mm
09:20 AM 53.2°F11.8°C 52.7°F11.5°C 98% Calm Calm -- 29.45 in997.3 mb 0.00 in0.0 mm 0.00 in0.0 mm 0.00 in0.0 mm
09:25 AM 53.6°F12.0°C 53.0°F11.7°C 98% Calm Calm -- 29.45 in997.3 mb 0.00 in0.0 mm 0.00 in0.0 mm 0.00 in0.0 mm
09:30 AM 53.8°F12.1°C 53.2°F11.8°C 98% Calm Calm -- 29.45 in997.3 mb 0.00 in0.0 mm 0.00 in0.0 mm 0.00 in0.0 mm
09:35 AM 53.8°F12.1°C 53.2°F11.8°C 98% Calm Calm -- 29.45 in997.3 mb 0.00 in0.0 mm 0.00 in0.0 mm 0.00 in0.0 mm
09:40 AM 53.8°F12.1°C 53.2°F11.8°C 98% Calm Calm -- 29.45 in997.3 mb 0.00 in0.0 mm 0.00 in0.0 mm 0.00 in0.0 mm
09:45 AM 53.8°F12.1°C 53.2°F11.8°C 98% Calm Calm -- 29.45 in997.3 mb 0.00 in0.0 mm 0.00 in0.0 mm 0.00 in0.0 mm
09:50 AM 54.0°F12.2°C 53.4°F11.9°C 98% Calm Calm -- 29.45 in997.3 mb 0.00 in0.0 mm 0.00 in0.0 mm 0.00 in0.0 mm
09:55 AM 54.0°F12.2°C 53.4°F11.9°C 98% Calm Calm -- 29.45 in997.3 mb 0.00 in0.0 mm 0.00 in0.0 mm 0.00 in0.0 mm
10:00 AM 54.1°F12.3°C 53.6°F12.0°C 98% Calm Calm -- 29.45 in997.3 mb 0.00 in0.0 mm 0.00 in0.0 mm 0.00 in0.0 mm
10:05 AM 54.3°F12.4°C 53.8°F12.1°C 98% Calm Calm -- 29.45 in997.3 mb 0.00 in0.0 mm 0.00 in0.0 mm 0.00 in0.0 mm
10:10 AM 54.3°F12.4°C 53.8°F12.1°C 98% Calm Calm -- 29.45 in997.3 mb 0.00 in0.0 mm 0.00 in0.0 mm 0.00 in0.0 mm
10:15 AM 54.3°F12.4°C 53.8°F12.1°C 98% Calm Calm -- 29.45 in997.3 mb 0.00 in0.0 mm 0.00 in0.0 mm 0.00 in0.0 mm
10:20 AM 54.3°F12.4°C 53.8°F12.1°C 98% 3.3 mph S5.3 kmh S 3.3 mph5.3 kmh 29.45 in997.3 mb 0.00 in0.0 mm 0.00 in0.0 mm 0.00 in0.0 mm
10:25 AM 54.3°F12.4°C 53.8°F12.1°C 98% Calm Calm 3.3 mph5.3 kmh 29.45 in997.3 mb 0.00 in0.0 mm 0.00 in0.0 mm 0.00 in0.0 mm
10:30 AM 54.3°F12.4°C 53.8°F12.1°C 98% 7.1 mph SSE11.4 kmh SSE 7.1 mph11.4 kmh 29.45 in997.3 mb 0.00 in0.0 mm 0.00 in0.0 mm 0.00 in0.0 mm
10:35 AM 54.3°F12.4°C 53.8°F12.1°C 98% Calm Calm 7.1 mph11.4 kmh 29.45 in997.3 mb 0.00 in0.0 mm 0.00 in0.0 mm 0.00 in0.0 mm
10:40 AM 54.5°F12.5°C 53.9°F12.2°C 98% Calm Calm 12.0 mph19.3 kmh 29.45 in997.3 mb 0.00 in0.0 mm 0.00 in0.0 mm 0.00 in0.0 mm
10:45 AM 55.0°F12.8°C 54.5°F12.5°C 98% Calm Calm 12.0 mph19.3 kmh 29.45 in997.3 mb 0.00 in0.0 mm 0.00 in0.0 mm 0.00 in0.0 mm
10:50 AM 55.6°F13.1°C 55.0°F12.8°C 98% 4.9 mph SE7.9 kmh SE 9.8 mph15.8 kmh 29.45 in997.3 mb 0.00 in0.0 mm 0.00 in0.0 mm 0.00 in0.0 mm
10:55 AM 55.9°F13.3°C 55.4°F13.0°C 98% Calm Calm 7.6 mph12.2 kmh 29.45 in997.3 mb 0.00 in0.0 mm 0.00 in0.0 mm 0.00 in0.0 mm
11:00 AM 56.3°F13.5°C 55.7°F13.2°C 98% 4.1 mph SSE6.6 kmh SSE 7.9 mph12.7 kmh 29.45 in997.3 mb 0.00 in0.0 mm 0.00 in0.0 mm 0.00 in0.0 mm
11:05 AM 56.5°F13.6°C 55.9°F13.3°C 98% 4.4 mph SE7.1 kmh SE 8.2 mph13.2 kmh 29.45 in997.3 mb 0.00 in0.0 mm 0.00 in0.0 mm 0.00 in0.0 mm
11:10 AM 56.7°F13.7°C 56.1°F13.4°C 98% 1.4 mph SSE2.3 kmh SSE 8.2 mph13.2 kmh 29.45 in997.3 mb 0.00 in0.0 mm 0.00 in0.0 mm 0.00 in0.0 mm
11:15 AM 56.8°F13.8°C 56.3°F13.5°C 98% 4.6 mph S7.4 kmh S 7.1 mph11.4 kmh 29.45 in997.3 mb 0.00 in0.0 mm 0.00 in0.0 mm 0.00 in0.0 mm
11:20 AM 56.8°F13.8°C 56.3°F13.5°C 98% 4.6 mph S7.4 kmh S 7.1 mph11.4 kmh 29.45 in997.3 mb 0.00 in0.0 mm 0.00 in0.0 mm 0.00 in0.0 mm
11:25 AM 56.8°F13.8°C 56.3°F13.5°C 98% 7.1 mph S11.4 kmh S 7.4 mph11.9 kmh 29.45 in997.3 mb 0.00 in0.0 mm 0.00 in0.0 mm 0.00 in0.0 mm
11:30 AM 56.8°F13.8°C 56.3°F13.5°C 98% 12.3 mph SSE19.8 kmh SSE 12.3 mph19.8 kmh 29.45 in997.3 mb 0.00 in0.0 mm 0.00 in0.0 mm 0.00 in0.0 mm
11:35 AM 56.7°F13.7°C 56.1°F13.4°C 98% 6.0 mph SSE9.7 kmh SSE 12.3 mph19.8 kmh 29.45 in997.3 mb 0.00 in0.0 mm 0.00 in0.0 mm 0.00 in0.0 mm
11:40 AM 56.7°F13.7°C 55.8°F13.2°C 97% 7.6 mph SSE12.2 kmh SSE 12.0 mph19.3 kmh 29.45 in997.3 mb 0.00 in0.0 mm 0.00 in0.0 mm 0.00 in0.0 mm
11:45 AM 56.7°F13.7°C 55.8°F13.2°C 97% 6.5 mph SSE10.5 kmh SSE 9.8 mph15.8 kmh 29.41 in995.9 mb 0.00 in0.0 mm 0.00 in0.0 mm 0.00 in0.0 mm
11:50 AM 56.5°F13.6°C 55.6°F13.1°C 97% 4.1 mph SSE6.6 kmh SSE 12.6 mph20.3 kmh 29.41 in995.9 mb 0.00 in0.0 mm 0.00 in0.0 mm 0.00 in0.0 mm
11:55 AM 56.5°F13.6°C 55.6°F13.1°C 97% 11.5 mph S18.5 kmh S 12.6 mph20.3 kmh 29.41 in995.9 mb 0.00 in0.0 mm 0.00 in0.0 mm 0.00 in0.0 mm
12:00 PM 56.3°F13.5°C 55.2°F12.9°C 96% 9.6 mph SSE15.4 kmh SSE 11.7 mph18.8 kmh 29.41 in995.9 mb 0.00 in0.0 mm 0.00 in0.0 mm 0.00 in0.0 mm
12:05 PM 56.1°F13.4°C 55.0°F12.8°C 96% 3.8 mph SE6.1 kmh SE 11.5 mph18.5 kmh 29.41 in995.9 mb 0.00 in0.0 mm 0.00 in0.0 mm 0.00 in0.0 mm
12:10 PM 55.9°F13.3°C 54.8°F12.7°C 96% 12.8 mph SSE20.6 kmh SSE 12.8 mph20.6 kmh 29.41 in995.9 mb 0.00 in0.0 mm 0.00 in0.0 mm 0.00 in0.0 mm
12:15 PM 55.8°F13.2°C 54.6°F12.6°C 96% Calm Calm 12.8 mph20.6 kmh 29.41 in995.9 mb 0.00 in0.0 mm 0.00 in0.0 mm 0.00 in0.0 mm
12:20 PM 55.8°F13.2°C 54.6°F12.6°C 96% 10.9 mph S17.5 kmh S 14.7 mph23.7 kmh 29.41 in995.9 mb 0.00 in0.0 mm 0.00 in0.0 mm 0.00 in0.0 mm
12:25 PM 55.8°F13.2°C 54.6°F12.6°C 96% 1.9 mph S3.1 kmh S 14.7 mph23.7 kmh 29.41 in995.9 mb 0.00 in0.0 mm 0.00 in0.0 mm 0.00 in0.0 mm
12:30 PM 55.9°F13.3°C 54.8°F12.7°C 96% 4.4 mph SSE7.1 kmh SSE 13.6 mph21.9 kmh 29.41 in995.9 mb 0.00 in0.0 mm 0.00 in0.0 mm 0.00 in0.0 mm
12:35 PM 55.9°F13.3°C 54.8°F12.7°C 96% 10.4 mph SSE16.7 kmh SSE 10.4 mph16.7 kmh 29.41 in995.9 mb 0.00 in0.0 mm 0.00 in0.0 mm 0.00 in0.0 mm
12:40 PM 56.1°F13.4°C 55.0°F12.8°C 96% 13.4 mph SSE21.6 kmh SSE 13.4 mph21.6 kmh 29.41 in995.9 mb 0.00 in0.0 mm 0.00 in0.0 mm 0.00 in0.0 mm
12:45 PM 56.1°F13.4°C 55.0°F12.8°C 96% 9.6 mph S15.4 kmh S 13.4 mph21.6 kmh 29.41 in995.9 mb 0.00 in0.0 mm 0.00 in0.0 mm 0.00 in0.0 mm
12:50 PM 56.3°F13.5°C 55.2°F12.9°C 96% 11.7 mph S18.8 kmh S 13.4 mph21.6 kmh 29.41 in995.9 mb 0.00 in0.0 mm 0.00 in0.0 mm 0.00 in0.0 mm
12:55 PM 56.1°F13.4°C 55.0°F12.8°C 96% 6.5 mph S10.5 kmh S 23.2 mph37.3 kmh 29.41 in995.9 mb 0.00 in0.0 mm 0.00 in0.0 mm 0.00 in0.0 mm
01:00 PM 56.3°F13.5°C 55.2°F12.9°C 96% 5.2 mph S8.4 kmh S 23.2 mph37.3 kmh 29.41 in995.9 mb 0.00 in0.0 mm 0.00 in0.0 mm 0.00 in0.0 mm
01:05 PM 56.3°F13.5°C 55.2°F12.9°C 96% 3.5 mph S5.6 kmh S 23.2 mph37.3 kmh 29.41 in995.9 mb 0.00 in0.0 mm 0.00 in0.0 mm 0.00 in0.0 mm
01:10 PM 56.1°F13.4°C 55.3°F12.9°C 97% 1.9 mph S3.1 kmh S 8.2 mph13.2 kmh 29.41 in995.9 mb 0.00 in0.0 mm 0.00 in0.0 mm 0.00 in0.0 mm
01:15 PM 55.9°F13.3°C 55.1°F12.8°C 97% 4.1 mph S6.6 kmh S 8.7 mph14.0 kmh 29.41 in995.9 mb 0.00 in0.0 mm 0.00 in0.0 mm 0.00 in0.0 mm
01:20 PM 55.6°F13.1°C 54.7°F12.6°C 97% 9.3 mph S15.0 kmh S 9.3 mph15.0 kmh 29.41 in995.9 mb 0.00 in0.0 mm 0.00 in0.0 mm 0.00 in0.0 mm
01:25 PM 55.2°F12.9°C 54.7°F12.6°C 98% 9.3 mph S15.0 kmh S 9.3 mph15.0 kmh 29.41 in995.9 mb 0.00 in0.0 mm 0.00 in0.0 mm 0.00 in0.0 mm
01:30 PM 54.5°F12.5°C 53.9°F12.2°C 98% 6.0 mph S9.7 kmh S 9.3 mph15.0 kmh 29.45 in997.3 mb 0.08 in2.0 mm 0.96 in24.4 mm 0.08 in2.0 mm
01:35 PM 54.0°F12.2°C 53.4°F11.9°C 98% 3.5 mph S5.6 kmh S 9.3 mph15.0 kmh 29.45 in997.3 mb 0.08 in2.0 mm 0.00 in0.0 mm 0.08 in2.0 mm
01:40 PM 53.8°F12.1°C 53.2°F11.8°C 98% 4.1 mph SSW6.6 kmh SSW 7.4 mph11.9 kmh 29.45 in997.3 mb 0.08 in2.0 mm 0.00 in0.0 mm 0.08 in2.0 mm
01:45 PM 53.8°F12.1°C 53.2°F11.8°C 98% Calm Calm 7.4 mph11.9 kmh 29.45 in997.3 mb 0.08 in2.0 mm 0.00 in0.0 mm 0.08 in2.0 mm
01:50 PM 53.8°F12.1°C 53.2°F11.8°C 98% 2.5 mph S4.0 kmh S 7.6 mph12.2 kmh 29.45 in997.3 mb 0.08 in2.0 mm 0.00 in0.0 mm 0.08 in2.0 mm
01:55 PM 53.8°F12.1°C 53.2°F11.8°C 98% 4.6 mph SSE7.4 kmh SSE 8.7 mph14.0 kmh 29.45 in997.3 mb 0.08 in2.0 mm 0.00 in0.0 mm 0.08 in2.0 mm
02:00 PM 53.8°F12.1°C 53.2°F11.8°C 98% 6.8 mph SSW10.9 kmh SSW 12.3 mph19.8 kmh 29.45 in997.3 mb 0.08 in2.0 mm 0.00 in0.0 mm 0.08 in2.0 mm
02:05 PM 54.0°F12.2°C 53.4°F11.9°C 98% Calm Calm 12.3 mph19.8 kmh 29.45 in997.3 mb 0.08 in2.0 mm 0.00 in0.0 mm 0.08 in2.0 mm
02:10 PM 54.0°F12.2°C 53.4°F11.9°C 98% 4.4 mph SSW7.1 kmh SSW 10.6 mph17.1 kmh 29.45 in997.3 mb 0.08 in2.0 mm 0.00 in0.0 mm 0.08 in2.0 mm
02:15 PM 54.0°F12.2°C 53.4°F11.9°C 98% 5.7 mph S9.2 kmh S 7.9 mph12.7 kmh 29.45 in997.3 mb 0.08 in2.0 mm 0.00 in0.0 mm 0.08 in2.0 mm
02:20 PM 53.8°F12.1°C 53.2°F11.8°C 98% 4.4 mph S7.1 kmh S 9.3 mph15.0 kmh 29.45 in997.3 mb 0.08 in2.0 mm 0.00 in0.0 mm 0.08 in2.0 mm
02:25 PM 53.8°F12.1°C 53.2°F11.8°C 98% 3.0 mph SSW4.8 kmh SSW 9.6 mph15.4 kmh 29.45 in997.3 mb 0.08 in2.0 mm 0.00 in0.0 mm 0.08 in2.0 mm
02:30 PM 53.6°F12.0°C 53.0°F11.7°C 98% 4.4 mph SW7.1 kmh SW 9.6 mph15.4 kmh 29.45 in997.3 mb 0.00 in0.0 mm 0.00 in0.0 mm 0.08 in2.0 mm
02:35 PM 53.6°F12.0°C 53.0°F11.7°C 98% 4.6 mph SW7.4 kmh SW 9.3 mph15.0 kmh 29.45 in997.3 mb 0.00 in0.0 mm 0.00 in0.0 mm 0.08 in2.0 mm
02:40 PM 53.4°F11.9°C 52.9°F11.6°C 98% 4.9 mph S7.9 kmh S 9.3 mph15.0 kmh 29.45 in997.3 mb 0.00 in0.0 mm 0.00 in0.0 mm 0.08 in2.0 mm
02:45 PM 53.2°F11.8°C 52.7°F11.5°C 98% 6.8 mph SSE10.9 kmh SSE 7.1 mph11.4 kmh 29.45 in997.3 mb 0.00 in0.0 mm 0.00 in0.0 mm 0.08 in2.0 mm
02:50 PM 53.4°F11.9°C 52.9°F11.6°C 98% Calm Calm 15.0 mph24.1 kmh 29.45 in997.3 mb 0.00 in0.0 mm 0.00 in0.0 mm 0.08 in2.0 mm
02:55 PM 53.4°F11.9°C 52.9°F11.6°C 98% 4.6 mph S7.4 kmh S 15.0 mph24.1 kmh 29.45 in997.3 mb 0.00 in0.0 mm 0.00 in0.0 mm 0.08 in2.0 mm
03:00 PM 53.4°F11.9°C 52.9°F11.6°C 98% 1.9 mph S3.1 kmh S 9.8 mph15.8 kmh 29.47 in998.0 mb 0.00 in0.0 mm 0.00 in0.0 mm 0.08 in2.0 mm
03:05 PM 53.4°F11.9°C 52.9°F11.6°C 98% 5.2 mph SW8.4 kmh SW 8.7 mph14.0 kmh 29.47 in998.0 mb 0.00 in0.0 mm 0.00 in0.0 mm 0.08 in2.0 mm
03:10 PM 53.4°F11.9°C 52.9°F11.6°C 98% 9.3 mph SW15.0 kmh SW 9.3 mph15.0 kmh 29.47 in998.0 mb 0.00 in0.0 mm 0.00 in0.0 mm 0.08 in2.0 mm
03:15 PM 53.4°F11.9°C 52.9°F11.6°C 98% 9.8 mph SW15.8 kmh SW 11.2 mph18.0 kmh 29.47 in998.0 mb 0.00 in0.0 mm 0.00 in0.0 mm 0.08 in2.0 mm
03:20 PM 53.4°F11.9°C 52.9°F11.6°C 98% 7.9 mph SW12.7 kmh SW 15.6 mph25.1 kmh 29.47 in998.0 mb 0.00 in0.0 mm 0.00 in0.0 mm 0.08 in2.0 mm
03:25 PM 53.4°F11.9°C 52.9°F11.6°C 98% 8.5 mph SW13.7 kmh SW 15.6 mph25.1 kmh 29.47 in998.0 mb 0.00 in0.0 mm 0.00 in0.0 mm 0.08 in2.0 mm
03:30 PM 53.2°F11.8°C 52.7°F11.5°C 98% 5.5 mph SW8.9 kmh SW 13.4 mph21.6 kmh 29.50 in999.0 mb 0.00 in0.0 mm 0.00 in0.0 mm 0.08 in2.0 mm
03:35 PM 53.2°F11.8°C 52.7°F11.5°C 98% 13.9 mph SW22.4 kmh SW 15.3 mph24.6 kmh 29.50 in999.0 mb 0.00 in0.0 mm 0.00 in0.0 mm 0.08 in2.0 mm
03:40 PM 53.1°F11.7°C 52.5°F11.4°C 98% 5.5 mph SW8.9 kmh SW 15.3 mph24.6 kmh 29.50 in999.0 mb 0.00 in0.0 mm 0.00 in0.0 mm 0.08 in2.0 mm
03:45 PM 53.1°F11.7°C 52.5°F11.4°C 98% 8.7 mph SW14.0 kmh SW 10.9 mph17.5 kmh 29.50 in999.0 mb 0.00 in0.0 mm 0.00 in0.0 mm 0.08 in2.0 mm
03:50 PM 52.9°F11.6°C 52.3°F11.3°C 98% 3.5 mph SW5.6 kmh SW 12.3 mph19.8 kmh 29.50 in999.0 mb 0.00 in0.0 mm 0.00 in0.0 mm 0.08 in2.0 mm
03:55 PM 52.9°F11.6°C 52.3°F11.3°C 98% 6.5 mph SW10.5 kmh SW 12.3 mph19.8 kmh 29.50 in999.0 mb 0.00 in0.0 mm 0.00 in0.0 mm 0.08 in2.0 mm
04:00 PM 52.7°F11.5°C 52.2°F11.2°C 98% 6.5 mph SSW10.5 kmh SSW 6.8 mph10.9 kmh 29.53 in1000.0 mb 0.00 in0.0 mm 0.00 in0.0 mm 0.08 in2.0 mm
04:05 PM 52.5°F11.4°C 52.0°F11.1°C 98% 6.8 mph SW10.9 kmh SW 10.6 mph17.1 kmh 29.53 in1000.0 mb 0.00 in0.0 mm 0.00 in0.0 mm 0.08 in2.0 mm
04:10 PM 52.3°F11.3°C 51.8°F11.0°C 98% 14.5 mph SW23.3 kmh SW 14.5 mph23.3 kmh 29.53 in1000.0 mb 0.00 in0.0 mm 0.00 in0.0 mm 0.08 in2.0 mm
04:15 PM 52.2°F11.2°C 51.6°F10.9°C 98% 4.1 mph SSW6.6 kmh SSW 17.2 mph27.7 kmh 29.53 in1000.0 mb 0.00 in0.0 mm 0.00 in0.0 mm 0.08 in2.0 mm
04:20 PM 52.0°F11.1°C 51.4°F10.8°C 98% 4.6 mph SSW7.4 kmh SSW 17.2 mph27.7 kmh 29.53 in1000.0 mb 0.00 in0.0 mm 0.00 in0.0 mm 0.08 in2.0 mm
04:25 PM 52.0°F11.1°C 51.4°F10.8°C 98% 1.9 mph SW3.1 kmh SW 12.6 mph20.3 kmh 29.53 in1000.0 mb 0.00 in0.0 mm 0.00 in0.0 mm 0.08 in2.0 mm
04:30 PM 51.8°F11.0°C 51.3°F10.7°C 98% 7.1 mph SW11.4 kmh SW 7.1 mph11.4 kmh 29.53 in1000.0 mb 0.00 in0.0 mm 0.00 in0.0 mm 0.08 in2.0 mm
04:35 PM 51.6°F10.9°C 51.1°F10.6°C 98% 6.0 mph SW9.7 kmh SW 10.4 mph16.7 kmh 29.53 in1000.0 mb 0.00 in0.0 mm 0.00 in0.0 mm 0.08 in2.0 mm
04:40 PM 51.6°F10.9°C 51.1°F10.6°C 98% 7.4 mph SW11.9 kmh SW 10.4 mph16.7 kmh 29.53 in1000.0 mb 0.00 in0.0 mm 0.00 in0.0 mm 0.08 in2.0 mm
04:45 PM 51.6°F10.9°C 51.1°F10.6°C 98% Calm Calm 7.4 mph11.9 kmh 29.56 in1001.0 mb 0.00 in0.0 mm 0.00 in0.0 mm 0.08 in2.0 mm
04:50 PM 51.6°F10.9°C 51.1°F10.6°C 98% 3.5 mph S5.6 kmh S 8.5 mph13.7 kmh 29.56 in1001.0 mb 0.00 in0.0 mm 0.00 in0.0 mm 0.08 in2.0 mm
04:55 PM 51.6°F10.9°C 51.1°F10.6°C 98% 7.1 mph SSW11.4 kmh SSW 8.5 mph13.7 kmh 29.56 in1001.0 mb 0.00 in0.0 mm 0.00 in0.0 mm 0.08 in2.0 mm
05:00 PM 51.6°F10.9°C 51.1°F10.6°C 98% 1.4 mph SW2.3 kmh SW 7.1 mph11.4 kmh 29.56 in1001.0 mb 0.00 in0.0 mm 0.00 in0.0 mm 0.08 in2.0 mm
05:05 PM 51.6°F10.9°C 51.1°F10.6°C 98% Calm Calm 7.1 mph11.4 kmh 29.56 in1001.0 mb 0.00 in0.0 mm 0.00 in0.0 mm 0.08 in2.0 mm
05:10 PM 51.6°F10.9°C 51.1°F10.6°C 98% Calm Calm 1.6 mph2.6 kmh 29.56 in1001.0 mb 0.00 in0.0 mm 0.00 in0.0 mm 0.08 in2.0 mm
05:15 PM 51.6°F10.9°C 51.1°F10.6°C 98% Calm Calm -- 29.56 in1001.0 mb 0.00 in0.0 mm 0.00 in0.0 mm 0.08 in2.0 mm
05:20 PM 51.6°F10.9°C 51.1°F10.6°C 98% 3.3 mph SW5.3 kmh SW 5.2 mph8.4 kmh 29.56 in1001.0 mb 0.00 in0.0 mm 0.00 in0.0 mm 0.08 in2.0 mm
05:25 PM 51.6°F10.9°C 51.1°F10.6°C 98% Calm Calm 5.2 mph8.4 kmh 29.56 in1001.0 mb 0.00 in0.0 mm 0.00 in0.0 mm 0.08 in2.0 mm
05:30 PM 51.6°F10.9°C 51.1°F10.6°C 98% Calm Calm 1.9 mph3.1 kmh 29.56 in1001.0 mb 0.00 in0.0 mm 0.00 in0.0 mm 0.08 in2.0 mm
05:35 PM 51.4°F10.8°C 50.9°F10.5°C 98% Calm Calm -- 29.56 in1001.0 mb 0.00 in0.0 mm 0.00 in0.0 mm 0.08 in2.0 mm
05:40 PM 51.3°F10.7°C 50.7°F10.4°C 98% Calm Calm 1.1 mph1.8 kmh 29.56 in1001.0 mb 0.00 in0.0 mm 0.00 in0.0 mm 0.08 in2.0 mm
05:45 PM 51.3°F10.7°C 50.7°F10.4°C 98% Calm Calm 1.1 mph1.8 kmh 29.59 in1002.0 mb 0.00 in0.0 mm 0.00 in0.0 mm 0.08 in2.0 mm
05:50 PM 51.1°F10.6°C 50.5°F10.3°C 98% Calm Calm 1.1 mph1.8 kmh 29.59 in1002.0 mb 0.00 in0.0 mm 0.00 in0.0 mm 0.08 in2.0 mm
05:55 PM 51.1°F10.6°C 50.5°F10.3°C 98% Calm Calm -- 29.59 in1002.0 mb 0.00 in0.0 mm 0.00 in0.0 mm 0.08 in2.0 mm
06:00 PM 51.1°F10.6°C 50.5°F10.3°C 98% Calm Calm -- 29.59 in1002.0 mb 0.00 in0.0 mm 0.00 in0.0 mm 0.08 in2.0 mm
06:05 PM 51.1°F10.6°C 50.5°F10.3°C 98% Calm Calm -- 29.59 in1002.0 mb 0.00 in0.0 mm 0.00 in0.0 mm 0.08 in2.0 mm
06:10 PM 51.1°F10.6°C 50.5°F10.3°C 98% Calm Calm -- 29.59 in1002.0 mb 0.00 in0.0 mm 0.00 in0.0 mm 0.08 in2.0 mm
06:15 PM 51.1°F10.6°C 50.5°F10.3°C 98% Calm Calm -- 29.59 in1002.0 mb 0.00 in0.0 mm 0.00 in0.0 mm 0.08 in2.0 mm
06:20 PM 51.1°F10.6°C 50.5°F10.3°C 98% Calm Calm -- 29.59 in1002.0 mb 0.00 in0.0 mm 0.00 in0.0 mm 0.08 in2.0 mm
06:25 PM 51.1°F10.6°C 50.5°F10.3°C 98% Calm Calm -- 29.59 in1002.0 mb 0.00 in0.0 mm 0.00 in0.0 mm 0.08 in2.0 mm
06:30 PM 51.1°F10.6°C 50.5°F10.3°C 98% Calm Calm -- 29.62 in1003.0 mb 0.00 in0.0 mm 0.00 in0.0 mm 0.08 in2.0 mm
06:35 PM 51.1°F10.6°C 50.5°F10.3°C 98% Calm Calm -- 29.62 in1003.0 mb 0.00 in0.0 mm 0.00 in0.0 mm 0.08 in2.0 mm
06:45 PM 50.9°F10.5°C 50.4°F10.2°C 98% Calm Calm -- 29.62 in1003.0 mb 0.00 in0.0 mm 0.00 in0.0 mm 0.08 in2.0 mm
06:50 PM 50.9°F10.5°C 50.4°F10.2°C 98% Calm Calm -- 29.62 in1003.0 mb 0.00 in0.0 mm 0.00 in0.0 mm 0.08 in2.0 mm
06:55 PM 50.7°F10.4°C 50.2°F10.1°C 98% Calm Calm -- 29.62 in1003.0 mb 0.00 in0.0 mm 0.00 in0.0 mm 0.08 in2.0 mm
07:00 PM 50.7°F10.4°C 50.2°F10.1°C 98% Calm Calm -- 29.62 in1003.0 mb 0.00 in0.0 mm 0.00 in0.0 mm 0.08 in2.0 mm
07:05 PM 50.5°F10.3°C 50.0°F10.0°C 98% Calm Calm -- 29.62 in1003.0 mb 0.00 in0.0 mm 0.00 in0.0 mm 0.08 in2.0 mm
07:10 PM 50.5°F10.3°C 50.0°F10.0°C 98% Calm Calm -- 29.62 in1003.0 mb 0.00 in0.0 mm 0.00 in0.0 mm 0.08 in2.0 mm
07:15 PM 50.5°F10.3°C 50.0°F10.0°C 98% Calm Calm -- 29.62 in1003.0 mb 0.00 in0.0 mm 0.00 in0.0 mm 0.08 in2.0 mm
07:20 PM 50.5°F10.3°C 50.0°F10.0°C 98% Calm Calm -- 29.62 in1003.0 mb 0.00 in0.0 mm 0.00 in0.0 mm 0.08 in2.0 mm
07:25 PM 50.5°F10.3°C 50.0°F10.0°C 98% Calm Calm -- 29.62 in1003.0 mb 0.00 in0.0 mm 0.00 in0.0 mm 0.08 in2.0 mm
07:30 PM 50.5°F10.3°C 50.0°F10.0°C 98% Calm Calm -- 29.62 in1003.0 mb 0.00 in0.0 mm 0.00 in0.0 mm 0.08 in2.0 mm
07:35 PM 50.5°F10.3°C 50.0°F10.0°C 98% Calm Calm -- 29.62 in1003.0 mb 0.00 in0.0 mm 0.00 in0.0 mm 0.08 in2.0 mm
07:40 PM 50.5°F10.3°C 50.0°F10.0°C 98% Calm Calm -- 29.62 in1003.0 mb 0.00 in0.0 mm 0.00 in0.0 mm 0.08 in2.0 mm
07:45 PM 50.5°F10.3°C 50.0°F10.0°C 98% Calm Calm -- 29.65 in1004.1 mb 0.00 in0.0 mm 0.00 in0.0 mm 0.08 in2.0 mm
07:50 PM 50.5°F10.3°C 50.0°F10.0°C 98% Calm Calm -- 29.65 in1004.1 mb 0.00 in0.0 mm 0.00 in0.0 mm 0.08 in2.0 mm
07:55 PM 50.4°F10.2°C 49.8°F9.9°C 98% Calm Calm -- 29.65 in1004.1 mb 0.00 in0.0 mm 0.00 in0.0 mm 0.08 in2.0 mm
08:00 PM 50.4°F10.2°C 49.8°F9.9°C 98% Calm Calm -- 29.65 in1004.1 mb 0.00 in0.0 mm 0.00 in0.0 mm 0.08 in2.0 mm
08:05 PM 50.2°F10.1°C 49.6°F9.8°C 98% Calm Calm -- 29.65 in1004.1 mb 0.00 in0.0 mm 0.00 in0.0 mm 0.08 in2.0 mm
08:10 PM 50.2°F10.1°C 49.6°F9.8°C 98% Calm Calm -- 29.65 in1004.1 mb 0.00 in0.0 mm 0.00 in0.0 mm 0.08 in2.0 mm
08:15 PM 50.2°F10.1°C 49.6°F9.8°C 98% Calm Calm -- 29.65 in1004.1 mb 0.00 in0.0 mm 0.00 in0.0 mm 0.08 in2.0 mm
08:20 PM 50.2°F10.1°C 49.6°F9.8°C 98% Calm Calm -- 29.65 in1004.1 mb 0.00 in0.0 mm 0.00 in0.0 mm 0.08 in2.0 mm
08:25 PM 50.2°F10.1°C 49.6°F9.8°C 98% Calm Calm -- 29.65 in1004.1 mb 0.00 in0.0 mm 0.00 in0.0 mm 0.08 in2.0 mm
08:30 PM 50.2°F10.1°C 49.6°F9.8°C 98% Calm Calm -- 29.68 in1005.1 mb 0.00 in0.0 mm 0.00 in0.0 mm 0.08 in2.0 mm
08:35 PM 50.2°F10.1°C 49.6°F9.8°C 98% Calm Calm -- 29.68 in1005.1 mb 0.00 in0.0 mm 0.00 in0.0 mm 0.08 in2.0 mm
08:40 PM 50.2°F10.1°C 49.6°F9.8°C 98% Calm Calm -- 29.68 in1005.1 mb 0.00 in0.0 mm 0.00 in0.0 mm 0.08 in2.0 mm
08:45 PM 50.2°F10.1°C 49.6°F9.8°C 98% Calm Calm -- 29.68 in1005.1 mb 0.00 in0.0 mm 0.00 in0.0 mm 0.08 in2.0 mm
08:50 PM 50.2°F10.1°C 49.6°F9.8°C 98% Calm Calm -- 29.68 in1005.1 mb 0.00 in0.0 mm 0.00 in0.0 mm 0.08 in2.0 mm
08:55 PM 50.4°F10.2°C 49.8°F9.9°C 98% Calm Calm -- 29.68 in1005.1 mb 0.00 in0.0 mm 0.00 in0.0 mm 0.08 in2.0 mm
09:00 PM 50.4°F10.2°C 49.8°F9.9°C 98% Calm Calm -- 29.68 in1005.1 mb 0.00 in0.0 mm 0.00 in0.0 mm 0.08 in2.0 mm
09:05 PM 50.5°F10.3°C 50.0°F10.0°C 98% Calm Calm -- 29.68 in1005.1 mb 0.00 in0.0 mm 0.00 in0.0 mm 0.08 in2.0 mm
09:10 PM 50.4°F10.2°C 49.8°F9.9°C 98% Calm Calm -- 29.68 in1005.1 mb 0.00 in0.0 mm 0.00 in0.0 mm 0.08 in2.0 mm
09:15 PM 50.5°F10.3°C 50.0°F10.0°C 98% Calm Calm -- 29.71 in1006.1 mb 0.00 in0.0 mm 0.00 in0.0 mm 0.08 in2.0 mm
09:20 PM 50.5°F10.3°C 50.0°F10.0°C 98% Calm Calm -- 29.71 in1006.1 mb 0.00 in0.0 mm 0.00 in0.0 mm 0.08 in2.0 mm
09:25 PM 50.5°F10.3°C 50.0°F10.0°C 98% Calm Calm -- 29.71 in1006.1 mb 0.00 in0.0 mm 0.00 in0.0 mm 0.08 in2.0 mm
09:30 PM 50.5°F10.3°C 50.0°F10.0°C 98% Calm Calm -- 29.71 in1006.1 mb 0.00 in0.0 mm 0.00 in0.0 mm 0.08 in2.0 mm
09:35 PM 50.5°F10.3°C 50.0°F10.0°C 98% Calm Calm 1.6 mph2.6 kmh 29.71 in1006.1 mb 0.00 in0.0 mm 0.00 in0.0 mm 0.08 in2.0 mm
09:40 PM 50.5°F10.3°C 50.0°F10.0°C 98% Calm Calm 3.8 mph6.1 kmh 29.71 in1006.1 mb 0.00 in0.0 mm 0.00 in0.0 mm 0.08 in2.0 mm
09:45 PM 50.5°F10.3°C 50.0°F10.0°C 98% Calm Calm 3.8 mph6.1 kmh 29.71 in1006.1 mb 0.00 in0.0 mm 0.00 in0.0 mm 0.08 in2.0 mm
09:50 PM 50.5°F10.3°C 50.0°F10.0°C 98% Calm Calm -- 29.71 in1006.1 mb 0.00 in0.0 mm 0.00 in0.0 mm 0.08 in2.0 mm
09:55 PM 50.5°F10.3°C 50.0°F10.0°C 98% Calm Calm -- 29.71 in1006.1 mb 0.00 in0.0 mm 0.00 in0.0 mm 0.08 in2.0 mm
10:00 PM 50.5°F10.3°C 50.0°F10.0°C 98% Calm Calm -- 29.74 in1007.1 mb 0.00 in0.0 mm 0.00 in0.0 mm 0.08 in2.0 mm
10:05 PM 50.5°F10.3°C 50.0°F10.0°C 98% Calm Calm -- 29.74 in1007.1 mb 0.00 in0.0 mm 0.00 in0.0 mm 0.08 in2.0 mm
10:10 PM 50.5°F10.3°C 50.0°F10.0°C 98% Calm Calm -- 29.74 in1007.1 mb 0.00 in0.0 mm 0.00 in0.0 mm 0.08 in2.0 mm
10:15 PM 50.7°F10.4°C 50.2°F10.1°C 98% Calm Calm -- 29.74 in1007.1 mb 0.00 in0.0 mm 0.00 in0.0 mm 0.08 in2.0 mm
10:20 PM 50.5°F10.3°C 50.0°F10.0°C 98% Calm Calm -- 29.74 in1007.1 mb 0.00 in0.0 mm 0.00 in0.0 mm 0.08 in2.0 mm
10:25 PM 50.5°F10.3°C 50.0°F10.0°C 98% Calm Calm -- 29.74 in1007.1 mb 0.00 in0.0 mm 0.00 in0.0 mm 0.08 in2.0 mm
10:30 PM 50.5°F10.3°C 50.0°F10.0°C 98% Calm Calm -- 29.77 in1008.1 mb 0.00 in0.0 mm 0.00 in0.0 mm 0.08 in2.0 mm
10:35 PM 50.7°F10.4°C 50.2°F10.1°C 98% Calm Calm -- 29.77 in1008.1 mb 0.00 in0.0 mm 0.00 in0.0 mm 0.08 in2.0 mm
10:40 PM 50.4°F10.2°C 49.8°F9.9°C 98% Calm Calm 1.1 mph1.8 kmh 29.77 in1008.1 mb 0.00 in0.0 mm 0.00 in0.0 mm 0.08 in2.0 mm
10:45 PM 50.0°F10.0°C 49.5°F9.7°C 98% Calm Calm 4.9 mph7.9 kmh 29.77 in1008.1 mb 0.00 in0.0 mm 0.00 in0.0 mm 0.08 in2.0 mm
10:50 PM 49.6°F9.8°C 49.1°F9.5°C 98% Calm Calm 4.9 mph7.9 kmh 29.77 in1008.1 mb 0.00 in0.0 mm 0.00 in0.0 mm 0.08 in2.0 mm
10:55 PM 49.5°F9.7°C 48.9°F9.4°C 98% Calm Calm -- 29.77 in1008.1 mb 0.00 in0.0 mm 0.00 in0.0 mm 0.08 in2.0 mm
11:00 PM 49.1°F9.5°C 48.6°F9.2°C 98% Calm Calm -- 29.80 in1009.1 mb 0.00 in0.0 mm 0.00 in0.0 mm 0.08 in2.0 mm
11:05 PM 48.9°F9.4°C 48.4°F9.1°C 98% Calm Calm -- 29.80 in1009.1 mb 0.00 in0.0 mm 0.00 in0.0 mm 0.08 in2.0 mm
11:10 PM 48.7°F9.3°C 48.2°F9.0°C 98% Calm Calm -- 29.80 in1009.1 mb 0.00 in0.0 mm 0.00 in0.0 mm 0.08 in2.0 mm
11:15 PM 48.4°F9.1°C 47.8°F8.8°C 98% Calm Calm -- 29.80 in1009.1 mb 0.00 in0.0 mm 0.00 in0.0 mm 0.08 in2.0 mm
11:20 PM 48.2°F9.0°C 47.7°F8.7°C 98% Calm Calm -- 29.80 in1009.1 mb 0.00 in0.0 mm 0.00 in0.0 mm 0.08 in2.0 mm
11:25 PM 48.2°F9.0°C 47.7°F8.7°C 98% Calm Calm -- 29.80 in1009.1 mb 0.00 in0.0 mm 0.00 in0.0 mm 0.08 in2.0 mm
11:30 PM 47.8°F8.8°C 47.3°F8.5°C 98% Calm Calm -- 29.80 in1009.1 mb 0.00 in0.0 mm 0.00 in0.0 mm 0.08 in2.0 mm
11:35 PM 47.7°F8.7°C 47.1°F8.4°C 98% Calm Calm -- 29.80 in1009.1 mb 0.00 in0.0 mm 0.00 in0.0 mm 0.08 in2.0 mm
11:40 PM 47.5°F8.6°C 46.9°F8.3°C 98% Calm Calm -- 29.80 in1009.1 mb 0.00 in0.0 mm 0.00 in0.0 mm 0.08 in2.0 mm
11:45 PM 47.3°F8.5°C 46.8°F8.2°C 98% Calm Calm -- 29.83 in1010.2 mb 0.00 in0.0 mm 0.00 in0.0 mm 0.08 in2.0 mm
11:50 PM 47.3°F8.5°C 46.8°F8.2°C 98% Calm Calm -- 29.83 in1010.2 mb 0.00 in0.0 mm 0.00 in0.0 mm 0.08 in2.0 mm
11:55 PM 47.1°F8.4°C 46.6°F8.1°C 98% Calm Calm -- 29.83 in1010.2 mb 0.00 in0.0 mm 0.00 in0.0 mm 0.08 in2.0 mm